createdAt,value
2023-01-13T00:00:04.798Z, 43.32
2023-01-13T00:01:04.656Z, 43.30
2023-01-13T00:02:04.736Z, 43.30
2023-01-13T00:03:04.709Z, 43.22
2023-01-13T00:04:04.698Z, 43.14
2023-01-13T00:05:04.792Z, 43.11
2023-01-13T00:06:04.719Z, 43.14
2023-01-13T00:07:04.710Z, 43.18
2023-01-13T00:08:04.716Z, 43.12
2023-01-13T00:09:04.715Z, 43.12
2023-01-13T00:10:04.725Z, 43.10
2023-01-13T00:11:04.733Z, 43.13
2023-01-13T00:12:04.827Z, 43.05
2023-01-13T00:13:04.814Z, 42.97
2023-01-13T00:14:04.805Z, 42.89
2023-01-13T00:15:04.792Z, 42.92
2023-01-13T00:16:05.079Z, 42.92
2023-01-13T00:17:04.820Z, 42.88
2023-01-13T00:18:04.836Z, 42.90
2023-01-13T00:19:04.835Z, 42.86
2023-01-13T00:20:04.840Z, 42.85
2023-01-13T00:21:04.867Z, 42.79
2023-01-13T00:22:04.883Z, 42.84
2023-01-13T00:23:04.971Z, 42.77
2023-01-13T00:24:04.932Z, 42.75
2023-01-13T00:25:04.935Z, 42.73
2023-01-13T00:26:04.941Z, 42.70
2023-01-13T00:27:04.940Z, 42.63
2023-01-13T00:28:05.037Z, 42.56
2023-01-13T00:29:05.009Z, 42.63
2023-01-13T00:30:04.998Z, 42.63
2023-01-13T00:31:05.119Z, 42.67
2023-01-13T00:32:05.000Z, 42.61
2023-01-13T00:33:05.017Z, 42.61
2023-01-13T00:34:05.010Z, 42.56
2023-01-13T00:35:05.079Z, 42.57
2023-01-13T00:36:05.066Z, 42.48
2023-01-13T00:37:05.073Z, 42.41
2023-01-13T00:38:05.137Z, 42.46
2023-01-13T00:39:05.117Z, 42.48
2023-01-13T00:40:05.159Z, 42.44
2023-01-13T00:41:05.149Z, 42.42
2023-01-13T00:42:05.142Z, 42.36
2023-01-13T00:43:05.153Z, 42.33
2023-01-13T00:44:05.183Z, 42.29
2023-01-13T00:45:05.198Z, 42.29
2023-01-13T00:46:05.199Z, 42.25
2023-01-13T00:47:05.195Z, 42.19
2023-01-13T00:48:05.287Z, 42.19
2023-01-13T00:49:05.271Z, 42.22
2023-01-13T00:50:05.258Z, 42.16
2023-01-13T00:51:05.281Z, 42.11
2023-01-13T00:52:05.260Z, 42.08
2023-01-13T00:53:05.274Z, 42.07
2023-01-13T00:54:05.286Z, 42.04
2023-01-13T00:55:05.373Z, 41.97
2023-01-13T00:56:05.330Z, 42.01
2023-01-13T00:57:05.406Z, 41.92
2023-01-13T00:58:05.384Z, 41.94
2023-01-13T00:59:05.419Z, 41.96
2023-01-13T01:00:05.385Z, 41.94
2023-01-13T01:01:05.514Z, 41.84
2023-01-13T01:02:05.557Z, 41.76
2023-01-13T01:03:05.411Z, 41.70
2023-01-13T01:04:05.413Z, 41.69
2023-01-13T01:05:05.393Z, 41.63
2023-01-13T01:06:05.452Z, 41.64
2023-01-13T01:07:05.445Z, 41.61
2023-01-13T01:08:05.471Z, 41.57
2023-01-13T01:09:05.446Z, 41.55
2023-01-13T01:10:05.451Z, 41.53
2023-01-13T01:11:05.528Z, 41.42
2023-01-13T01:12:05.517Z, 41.41
2023-01-13T01:13:05.571Z, 41.40
2023-01-13T01:14:05.548Z, 41.46
2023-01-13T01:15:05.546Z, 41.40
2023-01-13T01:16:05.631Z, 41.32
2023-01-13T01:17:05.550Z, 41.36
2023-01-13T01:18:05.557Z, 41.35
2023-01-13T01:19:05.571Z, 41.31
2023-01-13T01:20:05.658Z, 41.26
2023-01-13T01:21:05.640Z, 41.25
2023-01-13T01:22:05.630Z, 41.25
2023-01-13T01:23:05.631Z, 41.16
2023-01-13T01:24:05.644Z, 41.15
2023-01-13T01:25:05.694Z, 41.15
2023-01-13T01:26:05.685Z, 41.08
2023-01-13T01:27:05.735Z, 41.05
2023-01-13T01:28:05.697Z, 41.07
2023-01-13T01:29:05.728Z, 41.03
2023-01-13T01:30:05.713Z, 41.00
2023-01-13T01:31:05.836Z, 40.99
2023-01-13T01:32:05.787Z, 40.98
2023-01-13T01:33:05.779Z, 40.91
2023-01-13T01:34:05.769Z, 40.90
2023-01-13T01:35:05.769Z, 40.88
2023-01-13T01:36:05.871Z, 40.93
2023-01-13T01:37:05.828Z, 40.95
2023-01-13T01:38:05.871Z, 40.92
2023-01-13T01:39:05.837Z, 40.88
2023-01-13T01:40:05.838Z, 40.85
2023-01-13T01:41:05.889Z, 40.76
2023-01-13T01:42:05.893Z, 40.73
2023-01-13T01:43:05.957Z, 40.71
2023-01-13T01:44:05.926Z, 40.70
2023-01-13T01:45:05.938Z, 40.60
2023-01-13T01:46:05.923Z, 40.62
2023-01-13T01:47:06.084Z, 40.59
2023-01-13T01:48:05.971Z, 40.61
2023-01-13T01:49:05.964Z, 40.59
2023-01-13T01:50:05.967Z, 40.50
2023-01-13T01:51:05.965Z, 40.48
2023-01-13T01:52:06.043Z, 40.49
2023-01-13T01:53:05.992Z, 40.45
2023-01-13T01:54:06.051Z, 40.41
2023-01-13T01:55:06.030Z, 40.40
2023-01-13T01:56:06.048Z, 40.45
2023-01-13T01:57:06.054Z, 40.40
2023-01-13T01:58:06.051Z, 40.31
2023-01-13T01:59:06.072Z, 40.27
2023-01-13T02:00:06.073Z, 40.23
2023-01-13T02:01:06.324Z, 40.23
2023-01-13T02:02:06.301Z, 40.26
2023-01-13T02:03:06.174Z, 40.20
2023-01-13T02:04:06.161Z, 40.11
2023-01-13T02:05:06.213Z, 40.19
2023-01-13T02:06:06.189Z, 40.21
2023-01-13T02:07:06.240Z, 40.22
2023-01-13T02:08:06.216Z, 40.22
2023-01-13T02:09:06.293Z, 40.11
2023-01-13T02:10:06.270Z, 40.05
2023-01-13T02:11:06.285Z, 39.99
2023-01-13T02:12:06.277Z, 40.00
2023-01-13T02:13:06.325Z, 40.00
2023-01-13T02:14:06.290Z, 39.98
2023-01-13T02:15:06.313Z, 39.93
2023-01-13T02:16:06.342Z, 39.89
2023-01-13T02:17:06.294Z, 39.85
2023-01-13T02:18:06.315Z, 39.83
2023-01-13T02:19:06.313Z, 39.86
2023-01-13T02:20:06.388Z, 39.82
2023-01-13T02:21:06.367Z, 39.85
2023-01-13T02:22:06.403Z, 39.83
2023-01-13T02:23:06.376Z, 39.77
2023-01-13T02:24:06.396Z, 39.70
2023-01-13T02:25:06.388Z, 39.70
2023-01-13T02:26:06.422Z, 39.63
2023-01-13T02:27:06.415Z, 39.66
2023-01-13T02:28:06.416Z, 39.60
2023-01-13T02:29:06.436Z, 39.63
2023-01-13T02:30:06.445Z, 39.68
2023-01-13T02:31:06.562Z, 39.65
2023-01-13T02:32:06.522Z, 39.59
2023-01-13T02:33:06.584Z, 39.51
2023-01-13T02:34:06.567Z, 39.54
2023-01-13T02:35:06.598Z, 39.48
2023-01-13T02:36:06.565Z, 39.45
2023-01-13T02:37:06.614Z, 39.55
2023-01-13T02:38:06.594Z, 39.50
2023-01-13T02:39:06.611Z, 39.48
2023-01-13T02:40:06.600Z, 39.39
2023-01-13T02:41:06.648Z, 39.38
2023-01-13T02:42:06.620Z, 39.43
2023-01-13T02:43:06.624Z, 39.42
2023-01-13T02:44:06.645Z, 39.40
2023-01-13T02:45:06.629Z, 39.39
2023-01-13T02:46:06.786Z, 39.34
2023-01-13T02:47:06.718Z, 39.24
2023-01-13T02:48:06.696Z, 39.23
2023-01-13T02:49:06.694Z, 39.24
2023-01-13T02:50:06.707Z, 39.20
2023-01-13T02:51:06.692Z, 39.20
2023-01-13T02:52:06.696Z, 39.21
2023-01-13T02:53:06.719Z, 39.19
2023-01-13T02:54:06.735Z, 39.15
2023-01-13T02:55:06.750Z, 39.18
2023-01-13T02:56:06.828Z, 39.18
2023-01-13T02:57:06.814Z, 39.09
2023-01-13T02:58:06.838Z, 39.03
2023-01-13T02:59:06.824Z, 39.06
2023-01-13T03:00:06.772Z, 39.05
2023-01-13T03:01:06.958Z, 39.03
2023-01-13T03:02:06.995Z, 39.13
2023-01-13T03:03:06.778Z, 39.15
2023-01-13T03:04:06.794Z, 38.95
2023-01-13T03:05:06.877Z, 38.89
2023-01-13T03:06:06.854Z, 38.87
2023-01-13T03:07:06.850Z, 38.89
2023-01-13T03:08:06.879Z, 38.88
2023-01-13T03:09:06.853Z, 38.85
2023-01-13T03:10:06.926Z, 38.86
2023-01-13T03:11:06.907Z, 38.86
2023-01-13T03:12:06.916Z, 38.81
2023-01-13T03:13:06.909Z, 38.82
2023-01-13T03:14:06.918Z, 38.81
2023-01-13T03:15:06.938Z, 38.77
2023-01-13T03:16:06.943Z, 38.71
2023-01-13T03:17:07.028Z, 38.71
2023-01-13T03:18:07.024Z, 38.76
2023-01-13T03:19:07.010Z, 38.73
2023-01-13T03:20:07.008Z, 38.70
2023-01-13T03:21:07.024Z, 38.67
2023-01-13T03:22:07.126Z, 38.58
2023-01-13T03:23:07.074Z, 38.60
2023-01-13T03:24:07.095Z, 38.56
2023-01-13T03:25:07.067Z, 38.56
2023-01-13T03:26:07.089Z, 38.52
2023-01-13T03:27:07.107Z, 38.57
2023-01-13T03:28:07.127Z, 38.53
2023-01-13T03:29:07.191Z, 38.51
2023-01-13T03:30:07.180Z, 38.43
2023-01-13T03:31:07.255Z, 38.42
2023-01-13T03:32:07.177Z, 38.37
2023-01-13T03:33:07.198Z, 38.34
2023-01-13T03:34:07.198Z, 38.36
2023-01-13T03:35:07.190Z, 38.37
2023-01-13T03:36:07.196Z, 38.34
2023-01-13T03:37:07.207Z, 38.34
2023-01-13T03:38:07.270Z, 38.30
2023-01-13T03:39:07.236Z, 38.30
2023-01-13T03:40:07.308Z, 38.27
2023-01-13T03:41:07.303Z, 38.28
2023-01-13T03:42:07.293Z, 38.27
2023-01-13T03:43:07.327Z, 38.28
2023-01-13T03:44:07.297Z, 38.28
2023-01-13T03:45:07.344Z, 38.21
2023-01-13T03:46:07.363Z, 38.19
2023-01-13T03:47:07.393Z, 38.22
2023-01-13T03:48:07.368Z, 38.19
2023-01-13T03:49:07.420Z, 38.20
2023-01-13T03:50:07.396Z, 38.15
2023-01-13T03:51:07.401Z, 38.12
2023-01-13T03:52:07.409Z, 38.08
2023-01-13T03:53:07.406Z, 38.05
2023-01-13T03:54:07.434Z, 38.07
2023-01-13T03:55:07.468Z, 38.04
2023-01-13T03:56:07.455Z, 38.04
2023-01-13T03:57:07.520Z, 37.97
2023-01-13T03:58:07.551Z, 37.94
2023-01-13T03:59:07.570Z, 37.91
2023-01-13T04:00:07.542Z, 37.93
2023-01-13T04:01:07.688Z, 37.90
2023-01-13T04:02:07.706Z, 37.82
2023-01-13T04:03:07.549Z, 37.85
2023-01-13T04:04:07.614Z, 37.84
2023-01-13T04:05:07.558Z, 37.86
2023-01-13T04:06:07.567Z, 37.86
2023-01-13T04:07:07.593Z, 37.86
2023-01-13T04:08:07.664Z, 37.84
2023-01-13T04:09:07.640Z, 37.77
2023-01-13T04:10:07.707Z, 37.75
2023-01-13T04:11:07.678Z, 37.74
2023-01-13T04:12:07.680Z, 37.69
2023-01-13T04:13:07.697Z, 37.76
2023-01-13T04:14:07.681Z, 37.68
2023-01-13T04:15:07.677Z, 37.67
2023-01-13T04:16:07.787Z, 37.64
2023-01-13T04:17:07.717Z, 37.68
2023-01-13T04:18:07.739Z, 37.68
2023-01-13T04:19:07.817Z, 37.63
2023-01-13T04:20:07.791Z, 37.57
2023-01-13T04:21:07.803Z, 37.61
2023-01-13T04:22:07.800Z, 37.58
2023-01-13T04:23:07.795Z, 37.50
2023-01-13T04:24:07.808Z, 37.52
2023-01-13T04:25:07.814Z, 37.49
2023-01-13T04:26:07.877Z, 37.46
2023-01-13T04:27:07.881Z, 37.48
2023-01-13T04:28:07.903Z, 37.53
2023-01-13T04:29:07.873Z, 37.49
2023-01-13T04:30:07.898Z, 37.42
2023-01-13T04:31:07.950Z, 37.71
2023-01-13T04:32:07.970Z, 39.22
2023-01-13T04:33:07.931Z, 39.61
2023-01-13T04:34:07.966Z, 39.61
2023-01-13T04:35:07.976Z, 39.55
2023-01-13T04:36:07.982Z, 39.43
2023-01-13T04:37:08.003Z, 39.23
2023-01-13T04:38:07.971Z, 38.80
2023-01-13T04:39:08.064Z, 38.30
2023-01-13T04:40:08.033Z, 37.63
2023-01-13T04:41:08.081Z, 36.81
2023-01-13T04:42:08.060Z, 35.56
2023-01-13T04:43:08.098Z, 33.34
2023-01-13T04:44:08.057Z, 33.72
2023-01-13T04:45:08.121Z, 36.53
2023-01-13T04:46:08.205Z, 39.09
2023-01-13T04:47:08.141Z, 40.80
2023-01-13T04:48:08.110Z, 42.12
2023-01-13T04:49:08.131Z, 43.80
2023-01-13T04:50:08.105Z, 46.10
2023-01-13T04:51:08.141Z, 46.58
2023-01-13T04:52:08.142Z, 44.43
2023-01-13T04:53:08.138Z, 41.96
2023-01-13T04:54:08.159Z, 39.66
2023-01-13T04:55:08.155Z, 37.57
2023-01-13T04:56:08.238Z, 35.90
2023-01-13T04:57:08.216Z, 34.04
2023-01-13T04:58:08.216Z, 31.57
2023-01-13T04:59:08.212Z, 30.19
2023-01-13T05:00:08.234Z, 34.27
2023-01-13T05:01:08.296Z, 38.41
2023-01-13T05:02:08.379Z, 41.46
2023-01-13T05:03:08.267Z, 43.41
2023-01-13T05:04:08.268Z, 45.36
2023-01-13T05:05:08.376Z, 48.17
2023-01-13T05:06:08.318Z, 51.35
2023-01-13T05:07:08.393Z, 55.20
2023-01-13T05:08:08.360Z, 58.88
2023-01-13T05:09:08.382Z, 67.55
2023-01-13T05:10:08.413Z, 58.10
2023-01-13T05:11:08.377Z, 52.12
2023-01-13T05:12:08.404Z, 53.28
2023-01-13T05:13:08.391Z, 54.58
2023-01-13T05:14:08.407Z, 56.82
2023-01-13T05:15:08.406Z, 60.11
2023-01-13T05:16:11.165Z, 68.14
2023-01-13T05:17:08.463Z, 55.41
2023-01-13T05:18:08.468Z, 53.46
2023-01-13T05:19:08.514Z, 54.73
2023-01-13T05:20:08.513Z, 56.05
2023-01-13T05:21:08.496Z, 58.93
2023-01-13T05:22:08.502Z, 64.51
2023-01-13T05:23:08.500Z, 63.45
2023-01-13T05:24:08.582Z, 53.34
2023-01-13T05:25:08.555Z, 54.28
2023-01-13T05:26:08.551Z, 55.73
2023-01-13T05:27:08.559Z, 56.68
2023-01-13T05:28:08.571Z, 57.37
2023-01-13T05:29:08.575Z, 58.69
2023-01-13T05:30:08.602Z, 59.29
2023-01-13T05:31:08.713Z, 58.31
2023-01-13T05:32:08.664Z, 56.94
2023-01-13T05:33:08.692Z, 55.98
2023-01-13T05:34:08.671Z, 55.26
2023-01-13T05:35:08.695Z, 54.43
2023-01-13T05:36:08.684Z, 53.41
2023-01-13T05:37:08.683Z, 52.41
2023-01-13T05:38:08.753Z, 51.54
2023-01-13T05:39:08.735Z, 50.74
2023-01-13T05:40:08.766Z, 50.01
2023-01-13T05:41:08.735Z, 49.35
2023-01-13T05:42:08.766Z, 48.71
2023-01-13T05:43:08.748Z, 48.12
2023-01-13T05:44:08.749Z, 47.60
2023-01-13T05:45:08.833Z, 47.02
2023-01-13T05:46:08.905Z, 46.44
2023-01-13T05:47:08.816Z, 45.86
2023-01-13T05:48:08.814Z, 45.30
2023-01-13T05:49:08.820Z, 44.74
2023-01-13T05:50:08.855Z, 44.21
2023-01-13T05:51:08.866Z, 43.68
2023-01-13T05:52:08.957Z, 43.20
2023-01-13T05:53:08.946Z, 42.74
2023-01-13T05:54:08.947Z, 42.29
2023-01-13T05:55:08.939Z, 41.91
2023-01-13T05:56:08.943Z, 41.50
2023-01-13T05:57:08.931Z, 41.01
2023-01-13T05:58:08.998Z, 40.55
2023-01-13T05:59:08.962Z, 40.15
2023-01-13T06:00:08.983Z, 39.78
2023-01-13T06:01:09.078Z, 39.46
2023-01-13T06:02:08.999Z, 39.10
2023-01-13T06:03:09.098Z, 38.83
2023-01-13T06:04:09.062Z, 38.54
2023-01-13T06:05:09.104Z, 38.24
2023-01-13T06:06:09.270Z, 37.90
2023-01-13T06:07:09.071Z, 37.58
2023-01-13T06:08:09.082Z, 37.18
2023-01-13T06:09:09.080Z, 36.70
2023-01-13T06:10:09.092Z, 36.12
2023-01-13T06:11:09.076Z, 35.45
2023-01-13T06:12:09.173Z, 34.78
2023-01-13T06:13:09.142Z, 34.18
2023-01-13T06:14:09.152Z, 33.83
2023-01-13T06:15:09.158Z, 38.45
2023-01-13T06:16:09.243Z, 43.43
2023-01-13T06:17:09.226Z, 48.48
2023-01-13T06:18:09.219Z, 49.61
2023-01-13T06:19:09.294Z, 49.22
2023-01-13T06:20:09.255Z, 48.78
2023-01-13T06:21:09.255Z, 48.41
2023-01-13T06:22:09.256Z, 48.09
2023-01-13T06:23:09.257Z, 47.75
2023-01-13T06:24:09.266Z, 47.40
2023-01-13T06:25:09.272Z, 47.05
2023-01-13T06:26:09.358Z, 46.81
2023-01-13T06:27:09.334Z, 46.53
2023-01-13T06:28:09.392Z, 46.30
2023-01-13T06:29:09.341Z, 46.08
2023-01-13T06:30:09.389Z, 45.85
2023-01-13T06:31:09.446Z, 45.64
2023-01-13T06:32:09.430Z, 45.50
2023-01-13T06:33:09.400Z, 45.32
2023-01-13T06:34:09.394Z, 45.13
2023-01-13T06:35:09.396Z, 45.01
2023-01-13T06:36:09.424Z, 44.85
2023-01-13T06:37:09.408Z, 44.71
2023-01-13T06:38:09.421Z, 44.57
2023-01-13T06:39:09.527Z, 44.42
2023-01-13T06:40:09.471Z, 44.24
2023-01-13T06:41:09.542Z, 44.11
2023-01-13T06:42:09.528Z, 43.99
2023-01-13T06:43:09.577Z, 43.83
2023-01-13T06:44:09.571Z, 43.75
2023-01-13T06:45:09.561Z, 43.64
2023-01-13T06:46:09.602Z, 43.51
2023-01-13T06:47:09.565Z, 43.38
2023-01-13T06:48:09.563Z, 43.26
2023-01-13T06:49:09.596Z, 43.14
2023-01-13T06:50:09.583Z, 42.97
2023-01-13T06:51:09.649Z, 42.91
2023-01-13T06:52:09.627Z, 42.78
2023-01-13T06:53:09.706Z, 42.68
2023-01-13T06:54:09.665Z, 42.55
2023-01-13T06:55:09.662Z, 42.43
2023-01-13T06:56:09.662Z, 42.34
2023-01-13T06:57:09.664Z, 42.24
2023-01-13T06:58:09.756Z, 42.18
2023-01-13T06:59:09.717Z, 42.06
2023-01-13T07:00:09.737Z, 41.95
2023-01-13T07:01:09.867Z, 41.85
2023-01-13T07:02:09.966Z, 41.77
2023-01-13T07:03:09.760Z, 41.70
2023-01-13T07:04:09.760Z, 41.63
2023-01-13T07:05:09.767Z, 41.62
2023-01-13T07:06:09.768Z, 41.50
2023-01-13T07:07:09.843Z, 41.40
2023-01-13T07:08:09.832Z, 41.30
2023-01-13T07:09:09.848Z, 41.22
2023-01-13T07:10:09.835Z, 41.11
2023-01-13T07:11:09.871Z, 41.07
2023-01-13T07:12:09.864Z, 40.98
2023-01-13T07:13:09.864Z, 40.94
2023-01-13T07:14:09.954Z, 40.89
2023-01-13T07:15:09.920Z, 40.78
2023-01-13T07:16:10.062Z, 40.71
2023-01-13T07:17:09.960Z, 40.63
2023-01-13T07:18:09.960Z, 40.56
2023-01-13T07:19:09.946Z, 40.51
2023-01-13T07:20:09.958Z, 40.45
2023-01-13T07:21:09.962Z, 40.33
2023-01-13T07:22:09.959Z, 40.26
2023-01-13T07:23:09.962Z, 40.19
2023-01-13T07:24:09.982Z, 40.16
2023-01-13T07:25:10.019Z, 40.10
2023-01-13T07:26:10.027Z, 40.03
2023-01-13T07:27:10.128Z, 39.94
2023-01-13T07:28:10.074Z, 39.88
2023-01-13T07:29:10.116Z, 39.84
2023-01-13T07:30:10.136Z, 39.74
2023-01-13T07:31:10.161Z, 39.69
2023-01-13T07:32:10.136Z, 39.72
2023-01-13T07:33:10.199Z, 39.66
2023-01-13T07:34:10.193Z, 39.56
2023-01-13T07:35:10.219Z, 39.53
2023-01-13T07:36:10.212Z, 39.41
2023-01-13T07:37:10.219Z, 39.42
2023-01-13T07:38:10.182Z, 39.38
2023-01-13T07:39:10.193Z, 39.27
2023-01-13T07:40:10.215Z, 39.20
2023-01-13T07:41:10.205Z, 39.19
2023-01-13T07:42:10.230Z, 39.13
2023-01-13T07:43:10.236Z, 39.09
2023-01-13T07:44:10.340Z, 39.05
2023-01-13T07:45:12.211Z, 38.95
2023-01-13T07:46:10.390Z, 38.91
2023-01-13T07:47:10.349Z, 38.89
2023-01-13T07:48:10.353Z, 38.82
2023-01-13T07:49:10.341Z, 38.74
2023-01-13T07:50:10.336Z, 38.72
2023-01-13T07:51:10.337Z, 38.66
2023-01-13T07:52:10.360Z, 38.59
2023-01-13T07:53:10.356Z, 38.61
2023-01-13T07:54:10.441Z, 38.56
2023-01-13T07:55:10.413Z, 38.49
2023-01-13T07:56:10.436Z, 38.45
2023-01-13T07:57:10.449Z, 38.42
2023-01-13T07:58:10.411Z, 38.34
2023-01-13T07:59:10.427Z, 38.26
2023-01-13T08:00:12.746Z, 38.27
2023-01-13T08:01:10.742Z, 38.21
2023-01-13T08:02:10.766Z, 38.17
2023-01-13T08:03:10.624Z, 38.16
2023-01-13T08:04:10.539Z, 38.12
2023-01-13T08:05:10.589Z, 38.12
2023-01-13T08:06:10.562Z, 38.06
2023-01-13T08:07:10.567Z, 38.00
2023-01-13T08:08:10.585Z, 37.95
2023-01-13T08:09:10.562Z, 37.89
2023-01-13T08:10:10.633Z, 37.83
2023-01-13T08:11:10.625Z, 37.82
2023-01-13T08:12:10.680Z, 37.80
2023-01-13T08:13:10.646Z, 37.77
2023-01-13T08:14:10.690Z, 37.73
2023-01-13T08:15:10.685Z, 37.67
2023-01-13T08:16:10.667Z, 37.65
2023-01-13T08:17:10.705Z, 37.63
2023-01-13T08:18:10.676Z, 37.60
2023-01-13T08:19:10.761Z, 37.57
2023-01-13T08:20:10.755Z, 37.50
2023-01-13T08:21:10.731Z, 37.51
2023-01-13T08:22:10.801Z, 37.48
2023-01-13T08:23:10.743Z, 37.47
2023-01-13T08:24:10.764Z, 37.43
2023-01-13T08:25:10.753Z, 37.35
2023-01-13T08:26:10.788Z, 37.33
2023-01-13T08:27:10.799Z, 37.30
2023-01-13T08:28:10.810Z, 37.28
2023-01-13T08:29:13.686Z, 37.25
2023-01-13T08:30:10.840Z, 37.21
2023-01-13T08:31:10.894Z, 37.17
2023-01-13T08:32:10.866Z, 37.13
2023-01-13T08:33:10.911Z, 37.08
2023-01-13T08:34:10.904Z, 37.02
2023-01-13T08:35:10.901Z, 36.97
2023-01-13T08:36:10.932Z, 36.98
2023-01-13T08:37:10.916Z, 36.92
2023-01-13T08:38:11.013Z, 36.93
2023-01-13T08:39:11.003Z, 36.90
2023-01-13T08:40:11.044Z, 36.86
2023-01-13T08:41:11.011Z, 36.87
2023-01-13T08:42:11.032Z, 36.80
2023-01-13T08:43:11.014Z, 36.75
2023-01-13T08:44:11.012Z, 36.76
2023-01-13T08:45:11.023Z, 36.69
2023-01-13T08:46:11.088Z, 36.65
2023-01-13T08:47:11.040Z, 36.65
2023-01-13T08:48:11.046Z, 36.63
2023-01-13T08:49:11.140Z, 36.61
2023-01-13T08:50:11.107Z, 36.56
2023-01-13T08:51:11.104Z, 36.55
2023-01-13T08:52:11.175Z, 36.51
2023-01-13T08:53:11.166Z, 36.47
2023-01-13T08:54:11.207Z, 36.48
2023-01-13T08:55:11.177Z, 36.43
2023-01-13T08:56:11.262Z, 36.42
2023-01-13T08:57:11.313Z, 36.36
2023-01-13T08:58:15.670Z, 36.37
2023-01-13T08:59:11.228Z, 36.34
2023-01-13T09:00:11.232Z, 36.33
2023-01-13T09:01:11.466Z, 36.27
2023-01-13T09:02:11.451Z, 36.23
2023-01-13T09:03:11.300Z, 36.26
2023-01-13T09:04:11.399Z, 36.23
2023-01-13T09:05:11.281Z, 36.17
2023-01-13T09:06:11.289Z, 36.19
2023-01-13T09:07:11.305Z, 36.17
2023-01-13T09:08:11.404Z, 36.13
2023-01-13T09:09:11.369Z, 36.05
2023-01-13T09:10:11.407Z, 36.00
2023-01-13T09:11:11.375Z, 36.01
2023-01-13T09:12:11.370Z, 36.03
2023-01-13T09:13:11.373Z, 35.99
2023-01-13T09:14:11.373Z, 35.91
2023-01-13T09:15:11.371Z, 35.90
2023-01-13T09:16:11.432Z, 35.90
2023-01-13T09:17:11.431Z, 35.82
2023-01-13T09:18:11.431Z, 35.79
2023-01-13T09:19:11.454Z, 35.73
2023-01-13T09:20:11.462Z, 35.76
2023-01-13T09:21:11.553Z, 35.77
2023-01-13T09:22:11.523Z, 35.73
2023-01-13T09:23:11.729Z, 35.69
2023-01-13T09:24:11.517Z, 35.65
2023-01-13T09:25:11.548Z, 35.63
2023-01-13T09:26:11.560Z, 35.61
2023-01-13T09:27:11.548Z, 35.60
2023-01-13T09:28:11.631Z, 35.63
2023-01-13T09:29:11.601Z, 35.56
2023-01-13T09:30:11.595Z, 35.52
2023-01-13T09:31:11.609Z, 35.50
2023-01-13T09:32:11.601Z, 35.48
2023-01-13T09:33:11.605Z, 35.49
2023-01-13T09:34:11.632Z, 35.49
2023-01-13T09:35:11.685Z, 35.48
2023-01-13T09:36:11.658Z, 35.43
2023-01-13T09:37:11.691Z, 35.37
2023-01-13T09:38:11.767Z, 35.36
2023-01-13T09:39:11.752Z, 35.37
2023-01-13T09:40:11.820Z, 35.35
2023-01-13T09:41:11.777Z, 35.31
2023-01-13T09:42:11.772Z, 35.28
2023-01-13T09:43:11.771Z, 35.27
2023-01-13T09:44:11.784Z, 35.22
2023-01-13T09:45:11.860Z, 35.18
2023-01-13T09:46:11.886Z, 35.21
2023-01-13T09:47:14.026Z, 35.12
2023-01-13T09:48:11.874Z, 35.09
2023-01-13T09:49:11.887Z, 35.09
2023-01-13T09:50:11.884Z, 35.10
2023-01-13T09:51:11.917Z, 35.06
2023-01-13T09:52:12.210Z, 35.03
2023-01-13T09:53:11.953Z, 35.04
2023-01-13T09:54:11.942Z, 35.04
2023-01-13T09:55:11.970Z, 35.03
2023-01-13T09:56:11.936Z, 34.97
2023-01-13T09:57:11.942Z, 34.94
2023-01-13T09:58:11.956Z, 34.91
2023-01-13T09:59:11.953Z, 34.90
2023-01-13T10:00:12.020Z, 34.86
2023-01-13T10:01:12.066Z, 34.84
2023-01-13T10:02:12.008Z, 34.83
2023-01-13T10:03:12.112Z, 34.83
2023-01-13T10:04:12.103Z, 34.81
2023-01-13T10:05:12.075Z, 34.76
2023-01-13T10:06:12.071Z, 34.79
2023-01-13T10:07:12.260Z, 34.77
2023-01-13T10:08:12.108Z, 34.70
2023-01-13T10:09:12.076Z, 34.69
2023-01-13T10:10:12.157Z, 34.70
2023-01-13T10:11:12.120Z, 34.73
2023-01-13T10:12:12.290Z, 34.71
2023-01-13T10:13:12.131Z, 34.69
2023-01-13T10:14:12.149Z, 34.67
2023-01-13T10:15:12.158Z, 34.63
2023-01-13T10:16:12.266Z, 34.59
2023-01-13T10:17:12.323Z, 34.58
2023-01-13T10:18:12.215Z, 34.59
2023-01-13T10:19:12.270Z, 34.51
2023-01-13T10:20:12.236Z, 34.56
2023-01-13T10:21:12.293Z, 34.54
2023-01-13T10:22:12.339Z, 34.54
2023-01-13T10:23:12.273Z, 34.54
2023-01-13T10:24:12.333Z, 34.48
2023-01-13T10:25:12.360Z, 34.42
2023-01-13T10:26:12.378Z, 34.48
2023-01-13T10:27:12.359Z, 34.44
2023-01-13T10:28:12.374Z, 34.41
2023-01-13T10:29:12.359Z, 34.42
2023-01-13T10:30:12.379Z, 34.42
2023-01-13T10:31:12.367Z, 34.39
2023-01-13T10:32:12.365Z, 34.35
2023-01-13T10:33:12.350Z, 34.34
2023-01-13T10:34:12.360Z, 34.26
2023-01-13T10:35:12.367Z, 34.25
2023-01-13T10:36:12.384Z, 34.22
2023-01-13T10:37:12.481Z, 34.23
2023-01-13T10:38:12.446Z, 34.18
2023-01-13T10:39:12.484Z, 34.19
2023-01-13T10:40:12.466Z, 34.18
2023-01-13T10:41:12.475Z, 34.14
2023-01-13T10:42:12.483Z, 34.18
2023-01-13T10:43:12.480Z, 34.20
2023-01-13T10:44:12.483Z, 34.13
2023-01-13T10:45:12.520Z, 34.07
2023-01-13T10:46:12.560Z, 34.08
2023-01-13T10:47:12.535Z, 34.05
2023-01-13T10:48:12.542Z, 33.98
2023-01-13T10:49:12.588Z, 33.95
2023-01-13T10:50:12.569Z, 33.94
2023-01-13T10:51:12.574Z, 33.95
2023-01-13T10:52:12.636Z, 33.99
2023-01-13T10:53:12.587Z, 33.97
2023-01-13T10:54:12.684Z, 33.91
2023-01-13T10:55:12.640Z, 33.90
2023-01-13T10:56:12.639Z, 33.89
2023-01-13T10:57:12.637Z, 33.87
2023-01-13T10:58:12.651Z, 33.85
2023-01-13T10:59:12.667Z, 33.88
2023-01-13T11:00:12.667Z, 33.86
2023-01-13T11:01:12.787Z, 34.02
2023-01-13T11:02:24.924Z, 35.17
2023-01-13T11:03:12.789Z, 38.56
2023-01-13T11:04:12.770Z, 45.53
2023-01-13T11:05:12.845Z, 44.59
2023-01-13T11:06:12.801Z, 41.73
2023-01-13T11:07:12.827Z, 39.71
2023-01-13T11:08:12.798Z, 38.22
2023-01-13T11:09:12.796Z, 36.25
2023-01-13T11:10:12.880Z, 34.08
2023-01-13T11:11:12.854Z, 32.29
2023-01-13T11:12:12.879Z, 29.93
2023-01-13T11:13:12.869Z, 27.81
2023-01-13T11:14:12.919Z, 27.40
2023-01-13T11:15:12.869Z, 32.02
2023-01-13T11:16:13.001Z, 36.44
2023-01-13T11:17:12.886Z, 39.60
2023-01-13T11:18:12.901Z, 41.75
2023-01-13T11:19:16.376Z, 43.71
2023-01-13T11:20:12.921Z, 44.27
2023-01-13T11:21:12.917Z, 41.83
2023-01-13T11:22:12.924Z, 39.32
2023-01-13T11:23:12.931Z, 36.91
2023-01-13T11:24:12.989Z, 35.00
2023-01-13T11:25:12.973Z, 33.10
2023-01-13T11:26:12.987Z, 30.42
2023-01-13T11:27:13.005Z, 29.45
2023-01-13T11:28:13.022Z, 32.23
2023-01-13T11:29:13.010Z, 37.84
2023-01-13T11:30:13.009Z, 42.27
2023-01-13T11:31:13.080Z, 45.20
2023-01-13T11:32:13.026Z, 48.34
2023-01-13T11:33:13.050Z, 49.16
2023-01-13T11:34:13.066Z, 48.98
2023-01-13T11:35:13.122Z, 48.78
2023-01-13T11:36:13.104Z, 48.45
2023-01-13T11:37:13.166Z, 48.20
2023-01-13T11:38:13.143Z, 47.91
2023-01-13T11:39:13.149Z, 47.67
2023-01-13T11:40:13.159Z, 47.46
2023-01-13T11:41:13.158Z, 47.28
2023-01-13T11:42:13.228Z, 47.10
2023-01-13T11:43:13.193Z, 46.96
2023-01-13T11:44:13.283Z, 46.81
2023-01-13T11:45:13.252Z, 46.61
2023-01-13T11:46:13.342Z, 46.46
2023-01-13T11:47:13.289Z, 46.29
2023-01-13T11:48:13.313Z, 46.07
2023-01-13T11:49:13.303Z, 45.90
2023-01-13T11:50:13.304Z, 45.68
2023-01-13T11:51:13.316Z, 45.53
2023-01-13T11:52:13.317Z, 45.38
2023-01-13T11:53:13.333Z, 45.27
2023-01-13T11:54:13.345Z, 45.11
2023-01-13T11:55:13.350Z, 44.96
2023-01-13T11:56:13.444Z, 44.76
2023-01-13T11:57:13.429Z, 44.59
2023-01-13T11:58:13.448Z, 44.48
2023-01-13T11:59:13.430Z, 44.32
2023-01-13T12:00:13.502Z, 44.17
2023-01-13T12:01:13.525Z, 44.06
2023-01-13T12:02:13.698Z, 43.91
2023-01-13T12:03:13.567Z, 43.77
2023-01-13T12:04:13.514Z, 43.62
2023-01-13T12:05:13.522Z, 43.53
2023-01-13T12:06:13.528Z, 43.38
2023-01-13T12:07:13.548Z, 43.26
2023-01-13T12:08:13.555Z, 43.14
2023-01-13T12:09:13.538Z, 43.05
2023-01-13T12:10:13.868Z, 42.95
2023-01-13T12:11:13.564Z, 42.73
2023-01-13T12:12:13.626Z, 42.61
2023-01-13T12:13:13.615Z, 42.50
2023-01-13T12:14:13.604Z, 42.38
2023-01-13T12:15:13.670Z, 42.26
2023-01-13T12:16:13.680Z, 42.17
2023-01-13T12:17:13.628Z, 42.09
2023-01-13T12:18:13.641Z, 41.97
2023-01-13T12:19:13.707Z, 41.84
2023-01-13T12:20:13.753Z, 41.76
2023-01-13T12:21:13.686Z, 41.65
2023-01-13T12:22:13.750Z, 41.52
2023-01-13T12:23:13.723Z, 41.41
2023-01-13T12:24:13.796Z, 41.33
2023-01-13T12:25:13.752Z, 41.25
2023-01-13T12:26:13.796Z, 41.14
2023-01-13T12:27:13.780Z, 41.09
2023-01-13T12:28:13.809Z, 41.01